Ghanzi, Botswana
Current Conditions -  °F | °C
As of 7:00 PM on Thursday 30 Oct 2014 (Local Time) from FBMN Reporting Station
Clear Clear  
Wind Chill: 33°   Ceiling: Unl
Heat Index: 33°   Visibility: 6mi
Dew Point:   Wind: 10mph
Humidity: 12%   Direction: 120°ESE
Pressure: 29.88"   Gusts: NA
Location:  21.7°S, 21.64°E
Report Text: FBMN 301700Z 12009KT CAVOK 33/M00 Q1012
Loading
Personal Weather Stations






























Interactive Weather Map
Tropical Storm Tracking
New forecast layout! Learn more

10-Day Weather Forecast

Advertisements
Track Severe Weather on mobile